createdAt,value
2019-02-04T00:00:42.222Z,97949.66
2019-02-04T00:02:17.537Z,97948.65
2019-02-04T00:03:53.423Z,97946.30
2019-02-04T00:05:30.664Z,97950.63
2019-02-04T00:07:08.251Z,97946.04
2019-02-04T00:08:44.225Z,97945.37
2019-02-04T00:10:19.444Z,97939.66
2019-02-04T00:11:55.122Z,97949.02
2019-02-04T00:13:31.060Z,97955.79
2019-02-04T00:15:12.471Z,97952.47
2019-02-04T00:16:47.027Z,97946.50
2019-02-04T00:18:23.262Z,97948.22
2019-02-04T00:20:01.028Z,97883.50
2019-02-04T00:21:35.984Z,97885.16
2019-02-04T00:23:13.772Z,97889.28
2019-02-04T00:24:49.860Z,97888.38
2019-02-04T00:26:28.353Z,97882.17
2019-02-04T00:28:03.944Z,97882.95
2019-02-04T00:29:40.787Z,97892.67
2019-02-04T00:31:21.321Z,97890.27
2019-02-04T00:32:56.561Z,97887.89
2019-02-04T00:34:32.470Z,97881.70
2019-02-04T00:36:08.218Z,97880.14
2019-02-04T00:37:43.460Z,97880.70
2019-02-04T00:39:18.827Z,97882.95
2019-02-04T00:40:54.112Z,97874.08
2019-02-04T00:42:31.652Z,97876.33
2019-02-04T00:44:06.542Z,97877.90
2019-02-04T00:45:44.929Z,97875.55
2019-02-04T00:47:25.556Z,97821.67
2019-02-04T00:49:03.660Z,97819.05
2019-02-04T00:50:43.603Z,97821.67
2019-02-04T00:52:26.406Z,97823.49
2019-02-04T00:54:04.702Z,97825.09
2019-02-04T00:55:40.707Z,97831.90
2019-02-04T00:57:17.734Z,97834.72
2019-02-04T00:58:53.230Z,97834.24
2019-02-04T01:00:29.214Z,97833.46
2019-02-04T01:02:05.202Z,97840.74
2019-02-04T01:03:40.977Z,97843.30
2019-02-04T01:05:16.924Z,97847.48
2019-02-04T01:06:52.792Z,97845.92
2019-02-04T01:08:27.969Z,97842.42
2019-02-04T01:10:03.550Z,97847.89
2019-02-04T01:11:39.543Z,97852.63
2019-02-04T01:13:14.797Z,97852.32
2019-02-04T01:14:50.066Z,97847.14
2019-02-04T01:16:26.664Z,97850.61
2019-02-04T01:18:02.431Z,97852.98
2019-02-04T01:19:39.306Z,97864.09
2019-02-04T01:21:14.490Z,97865.59
2019-02-04T01:22:51.032Z,97873.70
2019-02-04T01:24:26.381Z,97871.80
2019-02-04T01:26:01.841Z,97877.70
2019-02-04T01:27:39.104Z,97882.64
2019-02-04T01:29:14.228Z,97883.64
2019-02-04T01:30:49.608Z,97886.98
2019-02-04T01:32:24.857Z,97886.67
2019-02-04T01:34:00.931Z,97883.55
2019-02-04T01:35:36.281Z,97882.48
2019-02-04T01:37:11.736Z,97882.55
2019-02-04T01:38:46.988Z,97889.33
2019-02-04T01:40:24.298Z,97900.08
2019-02-04T01:41:59.502Z,97907.09
2019-02-04T01:43:34.806Z,97914.73
2019-02-04T01:45:13.397Z,97907.70
2019-02-04T01:46:51.456Z,97916.30
2019-02-04T01:48:30.258Z,97920.70
2019-02-04T01:50:13.749Z,97922.70
2019-02-04T01:51:49.230Z,97923.86
2019-02-04T01:53:24.586Z,97920.27
2019-02-04T01:55:02.153Z,97922.00
2019-02-04T01:56:42.499Z,97920.10
2019-02-04T01:58:17.845Z,97920.27
2019-02-04T01:59:53.211Z,97922.52
2019-02-04T02:01:28.803Z,97925.52
2019-02-04T02:03:08.092Z,97927.33
2019-02-04T02:04:45.455Z,97927.89
2019-02-04T02:06:20.644Z,97931.29
2019-02-04T02:08:01.147Z,97927.26
2019-02-04T02:09:37.182Z,97931.73
2019-02-04T02:11:13.344Z,97925.20
2019-02-04T02:12:51.509Z,97927.77
2019-02-04T02:14:26.789Z,97929.45
2019-02-04T02:16:02.472Z,97928.16
2019-02-04T02:17:38.120Z,97933.77
2019-02-04T02:19:13.731Z,97928.37
2019-02-04T02:20:51.003Z,97926.03
2019-02-04T02:22:30.673Z,97928.28
2019-02-04T02:24:06.250Z,97922.13
2019-02-04T02:25:42.098Z,97918.22
2019-02-04T02:27:17.305Z,97917.63
2019-02-04T02:28:52.633Z,97917.31
2019-02-04T02:30:30.006Z,97913.06
2019-02-04T02:32:07.397Z,97911.28
2019-02-04T02:33:42.632Z,97907.91
2019-02-04T02:35:17.794Z,97910.82
2019-02-04T02:36:53.386Z,97908.97
2019-02-04T02:38:28.510Z,97913.75
2019-02-04T02:40:03.840Z,97918.38
2019-02-04T02:41:39.201Z,97914.75
2019-02-04T02:43:14.882Z,97914.63
2019-02-04T02:44:50.310Z,97916.19
2019-02-04T02:46:25.459Z,97913.06
2019-02-04T02:48:00.760Z,97914.28
2019-02-04T02:49:36.453Z,97912.72
2019-02-04T02:51:12.263Z,97912.82
2019-02-04T02:52:47.753Z,97908.35
2019-02-04T02:54:22.965Z,97910.70
2019-02-04T02:55:58.117Z,97905.45
2019-02-04T02:57:33.393Z,97905.45
2019-02-04T02:59:08.707Z,97898.27
2019-02-04T03:00:44.131Z,97897.42
2019-02-04T03:02:19.855Z,97893.67
2019-02-04T03:03:55.498Z,97893.02
2019-02-04T03:05:30.688Z,97901.73
2019-02-04T03:07:05.860Z,97904.88
2019-02-04T03:08:41.117Z,97911.28
2019-02-04T03:10:18.710Z,97913.06
2019-02-04T03:11:56.950Z,97914.41
2019-02-04T03:13:32.242Z,97913.06
2019-02-04T03:15:08.086Z,97918.00
2019-02-04T03:16:43.291Z,97915.53
2019-02-04T03:18:18.673Z,97911.13
2019-02-04T03:19:54.143Z,97912.14
2019-02-04T03:21:29.264Z,97917.58
2019-02-04T03:23:04.720Z,97913.86
2019-02-04T03:24:40.118Z,97918.53
2019-02-04T03:26:15.642Z,97918.07
2019-02-04T03:27:50.957Z,97915.45
2019-02-04T03:29:26.106Z,97920.83
2019-02-04T03:31:02.030Z,97916.02
2019-02-04T03:32:37.303Z,97915.67
2019-02-04T03:34:12.543Z,97914.04
2019-02-04T03:35:47.647Z,97922.95
2019-02-04T03:37:22.817Z,97917.14
2019-02-04T03:38:58.429Z,97920.22
2019-02-04T03:40:34.128Z,97924.34
2019-02-04T03:42:09.385Z,97916.06
2019-02-04T03:43:44.649Z,97922.78
2019-02-04T03:45:19.785Z,97923.13
2019-02-04T03:46:55.062Z,97927.84
2019-02-04T03:48:30.981Z,97932.09
2019-02-04T03:50:06.869Z,97924.38
2019-02-04T03:51:42.303Z,97928.28
2019-02-04T03:53:20.542Z,97928.37
2019-02-04T03:54:55.664Z,97932.97
2019-02-04T03:56:31.856Z,97928.37
2019-02-04T03:58:07.039Z,97927.37
2019-02-04T03:59:43.799Z,97928.94
2019-02-04T04:01:19.236Z,97930.87
2019-02-04T04:02:54.481Z,97930.80
2019-02-04T04:04:32.711Z,97932.99
2019-02-04T04:06:09.170Z,97932.88
2019-02-04T04:07:44.855Z,97934.90
2019-02-04T04:09:20.235Z,97940.84
2019-02-04T04:10:55.510Z,97939.27
2019-02-04T04:12:31.106Z,97935.73
2019-02-04T04:14:06.518Z,97938.92
2019-02-04T04:15:45.230Z,97935.97
2019-02-04T04:17:20.838Z,97937.36
2019-02-04T04:18:56.329Z,97939.83
2019-02-04T04:20:32.192Z,97937.38
2019-02-04T04:22:07.609Z,97940.52
2019-02-04T04:23:43.318Z,97941.80
2019-02-04T04:25:18.433Z,97945.77
2019-02-04T04:26:54.004Z,97944.36
2019-02-04T04:28:29.302Z,97946.19
2019-02-04T04:30:05.971Z,97939.81
2019-02-04T04:31:41.359Z,97941.05
2019-02-04T04:33:16.498Z,97940.86
2019-02-04T04:34:51.727Z,97933.92
2019-02-04T04:36:27.705Z,97934.38
2019-02-04T04:38:02.939Z,97937.50
2019-02-04T04:39:38.896Z,97938.06
2019-02-04T04:41:14.413Z,97933.48
2019-02-04T04:42:51.393Z,97936.27
2019-02-04T04:44:29.109Z,97930.72
2019-02-04T04:46:04.343Z,97936.83
2019-02-04T04:47:39.904Z,97928.78
2019-02-04T04:49:15.633Z,97927.03
2019-02-04T04:50:50.834Z,97916.74
2019-02-04T04:52:25.957Z,97922.22
2019-02-04T04:54:01.221Z,97919.31
2019-02-04T04:55:36.675Z,97925.04
2019-02-04T04:57:12.068Z,97922.35
2019-02-04T04:58:47.243Z,97923.72
2019-02-04T05:00:27.371Z,97921.37
2019-02-04T05:02:02.578Z,97926.86
2019-02-04T05:03:38.065Z,97922.39
2019-02-04T05:05:13.771Z,97928.09
2019-02-04T05:06:48.890Z,97923.05
2019-02-04T05:08:24.379Z,97925.97
2019-02-04T05:09:59.583Z,97924.39
2019-02-04T05:11:34.743Z,97922.50
2019-02-04T05:13:09.964Z,97924.62
2019-02-04T05:14:47.235Z,97922.86
2019-02-04T05:16:22.472Z,97919.81
2019-02-04T05:17:57.898Z,97921.06
2019-02-04T05:19:33.171Z,97925.19
2019-02-04T05:21:08.315Z,97926.31
2019-02-04T05:22:43.512Z,97928.20
2019-02-04T05:24:18.714Z,97925.75
2019-02-04T05:25:54.517Z,97928.09
2019-02-04T05:27:29.650Z,97928.33
2019-02-04T05:29:06.138Z,97929.56
2019-02-04T05:30:41.451Z,97923.62
2019-02-04T05:32:18.158Z,97928.55
2019-02-04T05:33:54.122Z,97927.09
2019-02-04T05:35:33.355Z,97923.19
2019-02-04T05:37:08.448Z,97928.87
2019-02-04T05:38:43.526Z,97940.02
2019-02-04T05:40:23.303Z,97937.77
2019-02-04T05:42:04.240Z,97946.82
2019-02-04T05:43:39.497Z,97948.23
2019-02-04T05:45:17.574Z,97952.58
2019-02-04T05:46:52.812Z,97957.83
2019-02-04T05:48:27.916Z,97952.25
2019-02-04T05:50:03.055Z,97953.06
2019-02-04T05:51:38.264Z,97953.20
2019-02-04T05:53:16.168Z,97948.48
2019-02-04T05:54:51.295Z,97950.60
2019-02-04T05:56:28.018Z,97950.37
2019-02-04T05:58:05.664Z,97954.30
2019-02-04T05:59:40.940Z,97955.64
2019-02-04T06:01:18.022Z,97955.94
2019-02-04T06:02:58.492Z,97961.84
2019-02-04T06:04:33.590Z,97963.19
2019-02-04T06:06:09.577Z,97959.47
2019-02-04T06:07:44.764Z,97963.81
2019-02-04T06:09:21.300Z,97960.81
2019-02-04T06:10:56.668Z,97976.08
2019-02-04T06:12:34.853Z,97973.50
2019-02-04T06:14:11.822Z,97979.41
2019-02-04T06:15:47.690Z,97977.88
2019-02-04T06:17:23.320Z,97975.10
2019-02-04T06:19:01.301Z,97979.22
2019-02-04T06:20:39.385Z,97975.98
2019-02-04T06:22:14.999Z,97978.43
2019-02-04T06:23:54.164Z,97983.23
2019-02-04T06:25:30.540Z,97983.33
2019-02-04T06:27:10.239Z,97987.30
2019-02-04T06:28:48.842Z,97979.28
2019-02-04T06:30:24.687Z,97983.52
2019-02-04T06:32:00.230Z,97978.72
2019-02-04T06:33:35.929Z,97982.83
2019-02-04T06:35:11.459Z,97981.25
2019-02-04T06:36:50.539Z,97982.36
2019-02-04T06:38:24.268Z,97989.97
2019-02-04T06:39:59.718Z,98004.79
2019-02-04T06:41:35.233Z,98002.11
2019-02-04T06:43:10.553Z,98011.06
2019-02-04T06:44:46.080Z,98009.83
2019-02-04T06:46:27.787Z,98012.50
2019-02-04T06:48:03.624Z,98011.16
2019-02-04T06:49:39.319Z,98010.65
2019-02-04T06:51:16.045Z,98015.45
2019-02-04T06:52:53.903Z,98011.53
2019-02-04T06:54:32.344Z,98010.97
2019-02-04T06:56:08.034Z,98020.33
2019-02-04T06:57:43.676Z,98023.11
2019-02-04T06:59:18.871Z,98021.20
2019-02-04T07:00:54.576Z,98016.73
2019-02-04T07:02:29.657Z,98021.63
2019-02-04T07:04:06.119Z,98012.49
2019-02-04T07:05:44.231Z,98013.70
2019-02-04T07:07:28.574Z,98019.05
2019-02-04T07:09:05.442Z,98019.49
2019-02-04T07:10:42.255Z,98018.25
2019-02-04T07:12:17.978Z,98018.89
2019-02-04T07:13:53.319Z,98015.75
2019-02-04T07:15:28.917Z,98012.39
2019-02-04T07:17:07.308Z,98017.65
2019-02-04T07:18:42.743Z,98012.53
2019-02-04T07:20:24.030Z,98017.78
2019-02-04T07:21:59.344Z,98020.64
2019-02-04T07:23:35.078Z,98023.77
2019-02-04T07:25:11.682Z,98020.41
2019-02-04T07:26:49.830Z,98014.42
2019-02-04T07:28:29.080Z,98015.75
2019-02-04T07:30:06.013Z,98012.66
2019-02-04T07:31:43.638Z,98013.31
2019-02-04T07:33:20.439Z,98021.03
2019-02-04T07:34:56.090Z,98016.03
2019-02-04T07:36:33.323Z,98018.80
2019-02-04T07:38:09.202Z,98029.89
2019-02-04T07:39:46.612Z,98021.88
2019-02-04T07:41:29.260Z,98028.83
2019-02-04T07:43:04.462Z,98029.63
2019-02-04T07:44:40.134Z,98032.34
2019-02-04T07:46:21.391Z,98039.31
2019-02-04T07:47:58.826Z,98039.02
2019-02-04T07:49:40.930Z,98031.77
2019-02-04T07:51:17.118Z,98030.45
2019-02-04T07:52:52.543Z,98024.56
2019-02-04T07:54:27.802Z,98029.05
2019-02-04T07:56:03.920Z,98027.12
2019-02-04T07:57:41.395Z,98026.03
2019-02-04T07:59:18.179Z,98023.45
2019-02-04T08:00:54.679Z,98019.34
2019-02-04T08:02:32.149Z,98015.34
2019-02-04T08:04:08.007Z,98019.12
2019-02-04T08:05:48.308Z,98018.24
2019-02-04T08:07:26.221Z,98014.31
2019-02-04T08:09:01.786Z,98018.00
2019-02-04T08:10:43.718Z,98023.69
2019-02-04T08:12:19.464Z,98006.48
2019-02-04T08:13:58.508Z,98004.71
2019-02-04T08:15:38.445Z,98004.94
2019-02-04T08:17:18.131Z,98000.00
2019-02-04T08:18:53.598Z,97993.07
2019-02-04T08:20:29.182Z,97987.39
2019-02-04T08:22:06.336Z,97984.58
2019-02-04T08:23:41.850Z,97979.45
2019-02-04T08:25:25.953Z,97987.73
2019-02-04T08:27:02.159Z,97984.47
2019-02-04T08:28:38.084Z,97987.16
2019-02-04T08:30:23.829Z,97982.67
2019-02-04T08:32:02.691Z,97986.59
2019-02-04T08:33:38.366Z,97986.48
2019-02-04T08:35:14.315Z,97985.79
2019-02-04T08:36:52.258Z,97983.89
2019-02-04T08:38:27.859Z,97986.37
2019-02-04T08:40:03.443Z,97986.48
2019-02-04T08:41:41.488Z,97978.97
2019-02-04T08:43:17.482Z,97978.86
2019-02-04T08:44:53.196Z,97985.48
2019-02-04T08:46:28.516Z,97982.80
2019-02-04T08:48:07.208Z,97979.87
2019-02-04T08:49:42.730Z,97982.63
2019-02-04T08:51:18.163Z,97978.16
2019-02-04T08:52:56.384Z,97981.63
2019-02-04T08:54:36.074Z,97976.08
2019-02-04T08:56:11.512Z,97975.18
2019-02-04T08:57:46.775Z,97979.32
2019-02-04T08:59:22.476Z,97977.71
2019-02-04T09:01:01.581Z,97976.14
2019-02-04T09:02:39.502Z,97975.08
2019-02-04T09:04:17.508Z,97970.75
2019-02-04T09:05:53.122Z,97973.85
2019-02-04T09:07:34.316Z,97977.30
2019-02-04T09:09:10.791Z,97978.11
2019-02-04T09:10:56.181Z,97976.08
2019-02-04T09:12:33.784Z,97970.89
2019-02-04T09:14:13.271Z,97970.42
2019-02-04T09:15:49.042Z,97967.45
2019-02-04T09:17:35.325Z,97967.48
2019-02-04T09:19:12.296Z,97962.85
2019-02-04T09:20:50.501Z,97959.37
2019-02-04T09:22:27.136Z,97957.06
2019-02-04T09:24:06.048Z,97953.89
2019-02-04T09:25:44.380Z,97955.12
2019-02-04T09:27:21.794Z,97949.63
2019-02-04T09:28:57.944Z,97945.46
2019-02-04T09:30:33.319Z,97952.20
2019-02-04T09:32:13.031Z,97952.77
2019-02-04T09:33:48.929Z,97961.91
2019-02-04T09:35:26.177Z,97940.58
2019-02-04T09:37:06.247Z,97936.55
2019-02-04T09:38:42.218Z,97927.60
2019-02-04T09:40:25.751Z,97933.27
2019-02-04T09:42:02.991Z,97916.56
2019-02-04T09:43:38.795Z,97914.35
2019-02-04T09:45:24.363Z,97918.31
2019-02-04T09:46:58.274Z,97924.61
2019-02-04T09:48:36.026Z,97934.16
2019-02-04T09:50:21.420Z,97937.97
2019-02-04T09:51:51.258Z,97987.08
2019-02-04T09:53:26.574Z,97988.41
2019-02-04T09:55:01.854Z,97974.13
2019-02-04T09:56:39.235Z,97970.95
2019-02-04T09:58:16.712Z,97973.65
2019-02-04T09:59:52.140Z,97963.44
2019-02-04T10:01:27.689Z,97975.58
2019-02-04T10:03:03.560Z,97966.88
2019-02-04T10:04:46.942Z,97963.91
2019-02-04T10:06:26.067Z,97956.45
2019-02-04T10:08:03.555Z,97952.27
2019-02-04T10:09:40.541Z,97951.02
2019-02-04T10:11:16.109Z,97945.13
2019-02-04T10:12:53.183Z,97933.98
2019-02-04T10:14:28.454Z,97923.95
2019-02-04T10:16:03.874Z,97913.62
2019-02-04T10:17:41.155Z,97911.89
2019-02-04T10:19:17.330Z,97901.70
2019-02-04T10:20:53.145Z,97900.81
2019-02-04T10:22:28.838Z,97896.13
2019-02-04T10:24:04.667Z,97897.94
2019-02-04T10:25:44.142Z,97894.55
2019-02-04T10:27:23.023Z,97893.27
2019-02-04T10:29:04.619Z,97884.47
2019-02-04T10:30:40.466Z,97883.99
2019-02-04T10:32:16.015Z,97883.48
2019-02-04T10:33:54.348Z,97876.11
2019-02-04T10:35:32.933Z,97872.48
2019-02-04T10:37:11.868Z,97874.91
2019-02-04T10:38:48.059Z,97869.72
2019-02-04T10:40:30.319Z,97868.35
2019-02-04T10:42:05.621Z,97861.05
2019-02-04T10:43:44.361Z,97871.69
2019-02-04T10:45:20.254Z,97858.70
2019-02-04T10:46:56.265Z,97861.77
2019-02-04T10:48:35.204Z,97856.93
2019-02-04T10:50:23.793Z,97856.77
2019-02-04T10:52:02.215Z,97859.32
2019-02-04T10:53:37.678Z,97852.28
2019-02-04T10:55:14.813Z,97849.47
2019-02-04T10:56:50.509Z,97845.22
2019-02-04T10:58:27.134Z,97852.52
2019-02-04T11:00:04.364Z,97840.50
2019-02-04T11:01:46.274Z,97849.34
2019-02-04T11:03:21.691Z,97845.82
2019-02-04T11:04:57.342Z,97837.30
2019-02-04T11:06:32.732Z,97852.57
2019-02-04T11:08:09.206Z,97846.03
2019-02-04T11:09:44.459Z,97845.25
2019-02-04T11:11:23.822Z,97853.22
2019-02-04T11:12:59.120Z,97842.52
2019-02-04T11:14:38.448Z,97841.43
2019-02-04T11:16:14.308Z,97836.60
2019-02-04T11:17:51.833Z,97833.95
2019-02-04T11:19:32.106Z,97831.84
2019-02-04T11:21:08.035Z,97833.47
2019-02-04T11:22:49.502Z,97831.75
2019-02-04T11:24:27.294Z,97818.28
2019-02-04T11:26:02.761Z,97810.38
2019-02-04T11:27:43.323Z,97818.69
2019-02-04T11:29:21.285Z,97823.20
2019-02-04T11:31:01.307Z,97816.33
2019-02-04T11:32:43.374Z,97818.72
2019-02-04T11:34:19.379Z,97811.80
2019-02-04T11:35:54.749Z,97806.18
2019-02-04T11:37:34.142Z,97806.80
2019-02-04T11:39:13.137Z,97798.61
2019-02-04T11:40:50.720Z,97801.62
2019-02-04T11:42:25.787Z,97800.58
2019-02-04T11:44:04.324Z,97805.87
2019-02-04T11:45:41.356Z,97805.95
2019-02-04T11:47:17.824Z,97786.73
2019-02-04T11:48:54.783Z,97794.53
2019-02-04T11:50:41.752Z,97778.05
2019-02-04T11:52:21.606Z,97793.34
2019-02-04T11:53:56.801Z,97788.30
2019-02-04T11:55:42.194Z,97780.27
2019-02-04T11:57:17.996Z,97777.88
2019-02-04T11:58:53.404Z,97776.16
2019-02-04T12:00:30.356Z,97779.02
2019-02-04T12:02:06.222Z,97769.40
2019-02-04T12:03:44.768Z,97771.32
2019-02-04T12:05:20.859Z,97770.34
2019-02-04T12:06:58.989Z,97763.13
2019-02-04T12:08:35.226Z,97765.91
2019-02-04T12:10:18.563Z,97758.53
2019-02-04T12:11:57.176Z,97757.95
2019-02-04T12:13:32.378Z,97748.80
2019-02-04T12:15:18.926Z,97749.11
2019-02-04T12:16:54.183Z,97749.27
2019-02-04T12:18:35.621Z,97738.81
2019-02-04T12:20:17.195Z,97740.28
2019-02-04T12:21:52.773Z,97739.64
2019-02-04T12:23:28.228Z,97736.23
2019-02-04T12:25:09.747Z,97725.58
2019-02-04T12:26:46.041Z,97732.17
2019-02-04T12:28:28.318Z,97721.74
2019-02-04T12:29:58.774Z,97722.15
2019-02-04T12:31:42.096Z,97718.12
2019-02-04T12:33:23.444Z,97724.05
2019-02-04T12:35:07.969Z,97722.67
2019-02-04T12:36:44.949Z,97720.42
2019-02-04T12:38:21.673Z,97717.41
2019-02-04T12:40:00.245Z,97710.38
2019-02-04T12:41:37.630Z,97712.05
2019-02-04T12:43:12.932Z,97696.09
2019-02-04T12:45:04.268Z,97703.06
2019-02-04T12:46:44.074Z,97700.41
2019-02-04T12:48:24.656Z,97696.73
2019-02-04T12:50:00.351Z,97704.20
2019-02-04T12:51:41.632Z,97699.55
2019-02-04T12:53:16.926Z,97693.73
2019-02-04T12:54:52.392Z,97694.80
2019-02-04T12:56:29.524Z,97688.59
2019-02-04T12:58:05.248Z,97683.87
2019-02-04T12:59:45.208Z,97683.63
2019-02-04T13:01:26.678Z,97689.07
2019-02-04T13:03:02.281Z,97670.01
2019-02-04T13:04:44.739Z,97663.66
2019-02-04T13:06:19.986Z,97664.05
2019-02-04T13:07:55.374Z,97675.13
2019-02-04T13:09:39.209Z,97659.38
2019-02-04T13:11:27.671Z,97662.84
2019-02-04T13:13:12.108Z,97672.16
2019-02-04T13:14:52.517Z,97673.38
2019-02-04T13:16:35.386Z,97671.16
2019-02-04T13:18:20.202Z,97671.46
2019-02-04T13:20:01.708Z,97680.23
2019-02-04T13:21:45.147Z,97675.03
2019-02-04T13:23:15.136Z,97680.25
2019-02-04T13:24:53.683Z,97684.59
2019-02-04T13:26:32.325Z,97681.89
2019-02-04T13:28:14.911Z,97686.72
2019-02-04T13:29:56.506Z,97688.38
2019-02-04T13:31:33.583Z,97689.05
2019-02-04T13:33:09.111Z,97687.43
2019-02-04T13:34:45.391Z,97691.17
2019-02-04T13:36:26.135Z,97689.41
2019-02-04T13:38:07.576Z,97684.95
2019-02-04T13:39:48.228Z,97684.51
2019-02-04T13:41:26.020Z,97686.34
2019-02-04T13:43:01.159Z,97679.84
2019-02-04T13:44:36.384Z,97682.88
2019-02-04T13:46:12.595Z,97693.30
2019-02-04T13:47:48.189Z,97686.80
2019-02-04T13:49:31.030Z,97682.09
2019-02-04T13:51:09.795Z,97683.92
2019-02-04T13:52:46.147Z,97683.80
2019-02-04T13:54:33.293Z,97677.17
2019-02-04T13:56:15.439Z,97691.45
2019-02-04T13:58:02.460Z,97685.00
2019-02-04T13:59:41.277Z,97688.84
2019-02-04T14:01:19.507Z,97685.12
2019-02-04T14:03:00.674Z,97688.35
2019-02-04T14:04:44.322Z,97692.72
2019-02-04T14:06:27.438Z,97682.78
2019-02-04T14:08:02.989Z,97688.27
2019-02-04T14:09:38.385Z,97680.98
2019-02-04T14:11:15.980Z,97682.41
2019-02-04T14:12:54.593Z,97681.41
2019-02-04T14:14:31.280Z,97678.73
2019-02-04T14:16:06.697Z,97683.47
2019-02-04T14:17:58.188Z,97672.99
2019-02-04T14:19:31.665Z,97674.84
2019-02-04T14:21:08.753Z,97674.64
2019-02-04T14:22:49.362Z,97680.74
2019-02-04T14:24:29.474Z,97681.23
2019-02-04T14:26:15.169Z,97675.87
2019-02-04T14:27:50.729Z,97674.39
2019-02-04T14:29:34.513Z,97683.10
2019-02-04T14:31:11.354Z,97672.72
2019-02-04T14:32:48.635Z,97677.22
2019-02-04T14:34:26.920Z,97685.36
2019-02-04T14:36:02.618Z,97675.13
2019-02-04T14:37:38.500Z,97677.54
2019-02-04T14:39:16.540Z,97673.39
2019-02-04T14:40:54.327Z,97675.31
2019-02-04T14:42:29.434Z,97668.20
2019-02-04T14:44:47.665Z,97675.69
2019-02-04T14:46:53.479Z,97679.86
2019-02-04T14:49:07.279Z,97674.81
2019-02-04T14:51:50.407Z,97672.61
2019-02-04T14:55:12.171Z,97669.32
2019-02-04T14:56:43.427Z,97667.62
2019-02-04T14:58:42.263Z,97667.23
2019-02-04T15:00:56.912Z,97672.12
2019-02-04T15:03:08.265Z,97669.59
2019-02-04T15:05:11.329Z,97663.92
2019-02-04T15:07:29.664Z,97665.84
2019-02-04T15:09:57.593Z,97669.63
2019-02-04T15:12:21.841Z,97659.02
2019-02-04T15:14:47.079Z,97666.38
2019-02-04T15:16:34.269Z,97669.48
2019-02-04T15:18:50.532Z,97657.50
2019-02-04T15:24:38.139Z,97659.87
2019-02-04T15:26:50.313Z,97662.25
2019-02-04T15:29:15.392Z,97655.42
2019-02-04T15:31:46.867Z,97671.55
2019-02-04T15:33:37.626Z,97661.46
2019-02-04T15:35:49.256Z,97659.91
2019-02-04T15:37:45.758Z,97660.15
2019-02-04T15:39:54.480Z,97661.14
2019-02-04T15:42:33.692Z,97646.67
2019-02-04T15:45:16.982Z,97645.30
2019-02-04T15:47:20.554Z,97658.00
2019-02-04T15:49:50.174Z,97658.66
2019-02-04T15:51:46.601Z,97653.18
2019-02-04T15:53:23.770Z,97657.28
2019-02-04T15:55:02.899Z,97653.18
2019-02-04T15:56:40.201Z,97644.89
2019-02-04T15:58:23.035Z,97656.23
2019-02-04T16:00:07.194Z,97652.13
2019-02-04T16:01:48.385Z,97652.55
2019-02-04T16:03:32.252Z,97656.80
2019-02-04T16:05:12.455Z,97649.59
2019-02-04T16:06:59.156Z,97646.14
2019-02-04T16:08:56.345Z,97644.95
2019-02-04T16:10:41.637Z,97646.80
2019-02-04T16:12:35.783Z,97654.73
2019-02-04T16:14:46.275Z,97642.61
2019-02-04T16:16:06.138Z,97642.19
2019-02-04T16:17:53.238Z,97644.53
2019-02-04T16:19:53.472Z,97654.22
2019-02-04T16:21:34.277Z,97653.83
2019-02-04T16:23:13.245Z,97652.45
2019-02-04T16:24:56.132Z,97646.44
2019-02-04T16:26:57.605Z,97652.38
2019-02-04T16:28:38.585Z,97649.91
2019-02-04T16:30:31.848Z,97648.98
2019-02-04T16:32:27.278Z,97641.05
2019-02-04T16:34:10.379Z,97644.66
2019-02-04T16:35:50.105Z,97642.48
2019-02-04T16:37:41.168Z,97644.60
2019-02-04T16:39:19.636Z,97640.84
2019-02-04T16:41:18.863Z,97648.96
2019-02-04T16:42:59.753Z,97643.44
2019-02-04T16:44:38.482Z,97643.79
2019-02-04T16:46:14.540Z,97642.95
2019-02-04T16:47:50.767Z,97638.83
2019-02-04T16:49:28.329Z,97645.64
2019-02-04T16:51:15.362Z,97647.20
2019-02-04T16:53:09.721Z,97648.83
2019-02-04T16:54:35.856Z,97651.71
2019-02-04T16:56:12.229Z,97649.02
2019-02-04T16:57:49.078Z,97646.86
2019-02-04T16:59:28.853Z,97651.18
2019-02-04T17:01:04.375Z,97652.23
2019-02-04T17:02:41.412Z,97656.20
2019-02-04T17:04:20.754Z,97658.48
2019-02-04T17:06:00.420Z,97662.66
2019-02-04T17:07:46.804Z,97664.73
2019-02-04T17:09:29.508Z,97659.28
2019-02-04T17:11:08.884Z,97660.00
2019-02-04T17:12:46.593Z,97665.02
2019-02-04T17:14:28.799Z,97669.27
2019-02-04T17:16:13.762Z,97673.52
2019-02-04T17:17:53.049Z,97677.13
2019-02-04T17:19:34.368Z,97674.30
2019-02-04T17:21:23.304Z,97667.82
2019-02-04T17:22:58.258Z,97678.59
2019-02-04T17:24:33.601Z,97677.23
2019-02-04T17:26:13.532Z,97680.14
2019-02-04T17:27:50.059Z,97681.13
2019-02-04T17:29:30.294Z,97681.06
2019-02-04T17:31:08.911Z,97677.73
2019-02-04T17:32:48.165Z,97682.20
2019-02-04T17:34:39.933Z,97676.89
2019-02-04T17:36:30.206Z,97684.53
2019-02-04T17:38:15.126Z,97677.41
2019-02-04T17:39:54.057Z,97674.94
2019-02-04T17:41:32.351Z,97675.43
2019-02-04T17:43:08.331Z,97676.00
2019-02-04T17:44:46.679Z,97673.30
2019-02-04T17:46:24.235Z,97669.27
2019-02-04T17:48:02.361Z,97677.91
2019-02-04T17:49:39.808Z,97680.95
2019-02-04T17:51:19.236Z,97675.22
2019-02-04T17:53:02.833Z,97668.14
2019-02-04T17:54:42.178Z,97663.25
2019-02-04T17:56:28.960Z,97673.94
2019-02-04T17:58:10.249Z,97666.48
2019-02-04T17:59:49.587Z,97662.30
2019-02-04T18:01:31.483Z,97661.45
2019-02-04T18:03:12.915Z,97669.95
2019-02-04T18:05:09.950Z,97668.03
2019-02-04T18:06:53.620Z,97659.22
2019-02-04T18:08:42.229Z,97658.23
2019-02-04T18:10:45.502Z,97654.33
2019-02-04T18:12:28.230Z,97655.46
2019-02-04T18:14:18.199Z,97651.70
2019-02-04T18:15:59.379Z,97661.20
2019-02-04T18:17:37.254Z,97653.19
2019-02-04T18:19:18.558Z,97653.84
2019-02-04T18:20:54.734Z,97655.03
2019-02-04T18:22:51.898Z,97660.48
2019-02-04T18:24:23.926Z,97657.73
2019-02-04T18:26:04.636Z,97659.92
2019-02-04T18:27:44.421Z,97650.86
2019-02-04T18:29:18.705Z,97655.25
2019-02-04T18:31:04.370Z,97663.39
2019-02-04T18:32:44.429Z,97664.31
2019-02-04T18:34:31.264Z,97655.81
2019-02-04T18:36:12.379Z,97661.63
2019-02-04T18:37:48.027Z,97664.62
2019-02-04T18:39:26.691Z,97665.27
2019-02-04T18:41:05.449Z,97659.20
2019-02-04T18:42:42.239Z,97664.06
2019-02-04T18:44:19.312Z,97664.95
2019-02-04T18:46:06.596Z,97664.17
2019-02-04T18:47:46.622Z,97669.34
2019-02-04T18:49:29.894Z,97667.64
2019-02-04T18:51:10.605Z,97671.47
2019-02-04T18:52:47.111Z,97679.89
2019-02-04T18:54:25.680Z,97683.62
2019-02-04T18:56:08.581Z,97675.64
2019-02-04T18:57:46.098Z,97676.64
2019-02-04T18:59:29.374Z,97678.45
2019-02-04T19:01:04.876Z,97675.50
2019-02-04T19:02:45.449Z,97680.36
2019-02-04T19:04:31.220Z,97678.41
2019-02-04T19:06:14.288Z,97677.70
2019-02-04T19:07:52.494Z,97676.64
2019-02-04T19:09:31.240Z,97674.45
2019-02-04T19:11:05.870Z,97671.61
2019-02-04T19:12:42.762Z,97676.99
2019-02-04T19:14:21.276Z,97680.14
2019-02-04T19:16:12.249Z,97681.09
2019-02-04T19:18:04.220Z,97679.19
2019-02-04T19:19:59.341Z,97672.34
2019-02-04T19:21:44.435Z,97680.89
2019-02-04T19:23:20.181Z,97680.46
2019-02-04T19:24:58.517Z,97678.41
2019-02-04T19:26:33.851Z,97675.50
2019-02-04T19:28:13.426Z,97672.49
2019-02-04T19:29:50.969Z,97665.52
2019-02-04T19:31:59.499Z,97663.25
2019-02-04T19:33:40.907Z,97665.66
2019-02-04T19:35:27.687Z,97669.48